sensor_id;sensor_type;location;lat;lon;timestamp;pressure;altitude;pressure_sealevel;temperature;humidity
11605;BME280;5858;43.076;25.626;2023-09-18T00:02:13;99788.94;;;19.43;97.34
11605;BME280;5858;43.076;25.626;2023-09-18T00:04:41;99771.25;;;19.22;98.04
11605;BME280;5858;43.076;25.626;2023-09-18T00:07:08;99782.28;;;19.09;100.00
11605;BME280;5858;43.076;25.626;2023-09-18T00:09:36;99765.63;;;19.05;99.79
11605;BME280;5858;43.076;25.626;2023-09-18T00:12:03;99737.91;;;19.03;98.95
11605;BME280;5858;43.076;25.626;2023-09-18T00:14:32;99769.47;;;18.98;100.00
11605;BME280;5858;43.076;25.626;2023-09-18T00:16:59;99772.78;;;19.00;100.00
11605;BME280;5858;43.076;25.626;2023-09-18T00:19:27;99771.00;;;18.94;100.00
11605;BME280;5858;43.076;25.626;2023-09-18T00:21:54;99751.81;;;18.88;100.00
11605;BME280;5858;43.076;25.626;2023-09-18T00:24:21;99766.47;;;19.06;100.00
11605;BME280;5858;43.076;25.626;2023-09-18T00:26:50;99771.81;;;18.94;100.00
11605;BME280;5858;43.076;25.626;2023-09-18T00:29:18;99770.69;;;19.02;100.00
11605;BME280;5858;43.076;25.626;2023-09-18T00:31:46;99775.34;;;18.95;100.00
11605;BME280;5858;43.076;25.626;2023-09-18T00:34:13;99763.72;;;18.87;100.00
11605;BME280;5858;43.076;25.626;2023-09-18T00:36:40;99759.22;;;19.00;100.00
11605;BME280;5858;43.076;25.626;2023-09-18T00:39:07;99764.25;;;19.14;99.68
11605;BME280;5858;43.076;25.626;2023-09-18T00:41:34;99756.44;;;19.06;99.61
11605;BME280;5858;43.076;25.626;2023-09-18T00:44:02;99752.28;;;19.04;99.80
11605;BME280;5858;43.076;25.626;2023-09-18T00:46:31;99764.84;;;19.16;99.36
11605;BME280;5858;43.076;25.626;2023-09-18T00:48:59;99753.53;;;19.19;98.79
11605;BME280;5858;43.076;25.626;2023-09-18T00:51:26;99703.63;;;18.91;98.28
11605;BME280;5858;43.076;25.626;2023-09-18T00:53:54;99763.88;;;19.11;98.98
11605;BME280;5858;43.076;25.626;2023-09-18T00:56:21;99727.28;;;19.02;98.42
11605;BME280;5858;43.076;25.626;2023-09-18T00:58:48;99754.47;;;19.13;97.98
11605;BME280;5858;43.076;25.626;2023-09-18T01:01:18;99764.88;;;18.98;99.08
11605;BME280;5858;43.076;25.626;2023-09-18T01:03:48;99757.94;;;19.02;98.85
11605;BME280;5858;43.076;25.626;2023-09-18T01:06:17;99727.50;;;18.82;98.12
11605;BME280;5858;43.076;25.626;2023-09-18T01:08:46;99760.88;;;19.01;98.44
11605;BME280;5858;43.076;25.626;2023-09-18T01:11:20;99704.53;;;18.48;100.00
11605;BME280;5858;43.076;25.626;2023-09-18T01:13:55;99755.69;;;18.81;99.85
11605;BME280;5858;43.076;25.626;2023-09-18T01:16:26;99755.22;;;18.66;100.00
11605;BME280;5858;43.076;25.626;2023-09-18T01:18:54;99755.00;;;18.67;100.00
11605;BME280;5858;43.076;25.626;2023-09-18T01:21:22;99694.53;;;18.23;100.00
11605;BME280;5858;43.076;25.626;2023-09-18T01:23:51;99675.41;;;18.00;100.00
11605;BME280;5858;43.076;25.626;2023-09-18T01:26:18;99659.03;;;17.88;100.00
11605;BME280;5858;43.076;25.626;2023-09-18T01:28:44;99748.94;;;18.47;100.00
11605;BME280;5858;43.076;25.626;2023-09-18T01:31:11;99742.13;;;18.38;100.00
11605;BME280;5858;43.076;25.626;2023-09-18T01:33:39;99744.03;;;18.55;100.00
11605;BME280;5858;43.076;25.626;2023-09-18T01:36:07;99679.41;;;18.16;100.00
11605;BME280;5858;43.076;25.626;2023-09-18T01:38:35;99712.91;;;18.40;100.00
11605;BME280;5858;43.076;25.626;2023-09-18T01:41:05;99752.25;;;18.49;100.00
11605;BME280;5858;43.076;25.626;2023-09-18T01:43:32;99745.56;;;18.51;100.00
11605;BME280;5858;43.076;25.626;2023-09-18T01:46:00;99747.66;;;18.49;100.00
11605;BME280;5858;43.076;25.626;2023-09-18T01:48:29;99723.06;;;18.26;100.00
11605;BME280;5858;43.076;25.626;2023-09-18T01:50:56;99754.91;;;18.31;100.00
11605;BME280;5858;43.076;25.626;2023-09-18T01:53:22;99757.97;;;18.16;100.00
11605;BME280;5858;43.076;25.626;2023-09-18T01:55:49;99740.28;;;18.13;100.00
11605;BME280;5858;43.076;25.626;2023-09-18T01:58:18;99724.16;;;18.00;100.00
11605;BME280;5858;43.076;25.626;2023-09-18T02:00:45;99760.22;;;18.19;100.00
11605;BME280;5858;43.076;25.626;2023-09-18T02:03:12;99693.00;;;17.59;100.00
11605;BME280;5858;43.076;25.626;2023-09-18T02:05:40;99751.09;;;17.88;100.00
11605;BME280;5858;43.076;25.626;2023-09-18T02:08:07;99681.50;;;17.33;100.00
11605;BME280;5858;43.076;25.626;2023-09-18T02:10:34;99759.38;;;17.93;100.00
11605;BME280;5858;43.076;25.626;2023-09-18T02:13:01;99765.41;;;18.20;100.00
11605;BME280;5858;43.076;25.626;2023-09-18T02:15:30;99755.19;;;18.22;100.00
11605;BME280;5858;43.076;25.626;2023-09-18T02:17:57;99740.94;;;18.09;100.00
11605;BME280;5858;43.076;25.626;2023-09-18T02:20:26;99757.63;;;18.06;100.00
11605;BME280;5858;43.076;25.626;2023-09-18T02:22:53;99695.88;;;17.65;100.00
11605;BME280;5858;43.076;25.626;2023-09-18T02:25:20;99760.97;;;18.08;100.00
11605;BME280;5858;43.076;25.626;2023-09-18T02:27:47;99730.03;;;17.90;100.00
11605;BME280;5858;43.076;25.626;2023-09-18T02:30:15;99761.66;;;17.97;100.00
11605;BME280;5858;43.076;25.626;2023-09-18T02:32:43;99690.66;;;17.63;100.00
11605;BME280;5858;43.076;25.626;2023-09-18T02:35:10;99700.13;;;17.47;100.00
11605;BME280;5858;43.076;25.626;2023-09-18T02:37:37;99752.47;;;17.73;100.00
11605;BME280;5858;43.076;25.626;2023-09-18T02:40:06;99764.63;;;17.88;100.00
11605;BME280;5858;43.076;25.626;2023-09-18T02:42:33;99757.44;;;17.76;100.00
11605;BME280;5858;43.076;25.626;2023-09-18T02:45:00;99772.97;;;17.87;100.00
11605;BME280;5858;43.076;25.626;2023-09-18T02:47:27;99741.09;;;17.57;100.00
11605;BME280;5858;43.076;25.626;2023-09-18T02:49:55;99727.88;;;17.36;100.00
11605;BME280;5858;43.076;25.626;2023-09-18T02:52:22;99743.91;;;17.38;100.00
11605;BME280;5858;43.076;25.626;2023-09-18T02:54:49;99775.66;;;17.55;100.00
11605;BME280;5858;43.076;25.626;2023-09-18T02:57:15;99780.91;;;17.50;100.00
11605;BME280;5858;43.076;25.626;2023-09-18T02:59:42;99777.94;;;17.58;100.00
11605;BME280;5858;43.076;25.626;2023-09-18T03:02:09;99777.75;;;17.53;100.00
11605;BME280;5858;43.076;25.626;2023-09-18T03:04:36;99778.19;;;17.44;100.00
11605;BME280;5858;43.076;25.626;2023-09-18T03:07:05;99703.53;;;17.05;100.00
11605;BME280;5858;43.076;25.626;2023-09-18T03:09:32;99792.91;;;17.61;100.00
11605;BME280;5858;43.076;25.626;2023-09-18T03:11:58;99784.16;;;17.59;100.00
11605;BME280;5858;43.076;25.626;2023-09-18T03:14:26;99788.81;;;17.45;100.00
11605;BME280;5858;43.076;25.626;2023-09-18T03:16:54;99773.94;;;17.23;100.00
11605;BME280;5858;43.076;25.626;2023-09-18T03:19:21;99761.25;;;17.23;100.00
11605;BME280;5858;43.076;25.626;2023-09-18T03:21:49;99784.75;;;17.23;100.00
11605;BME280;5858;43.076;25.626;2023-09-18T03:24:18;99713.84;;;16.63;100.00
11605;BME280;5858;43.076;25.626;2023-09-18T03:26:45;99800.53;;;17.33;100.00
11605;BME280;5858;43.076;25.626;2023-09-18T03:29:12;99799.25;;;17.35;100.00
11605;BME280;5858;43.076;25.626;2023-09-18T03:31:39;99768.19;;;17.06;100.00
11605;BME280;5858;43.076;25.626;2023-09-18T03:34:06;99791.25;;;17.15;100.00
11605;BME280;5858;43.076;25.626;2023-09-18T03:36:33;99642.50;;;16.06;100.00
11605;BME280;5858;43.076;25.626;2023-09-18T03:39:00;99823.28;;;17.18;100.00
11605;BME280;5858;43.076;25.626;2023-09-18T03:41:29;99772.97;;;17.11;100.00
11605;BME280;5858;43.076;25.626;2023-09-18T03:43:59;99770.06;;;16.99;100.00
11605;BME280;5858;43.076;25.626;2023-09-18T03:46:26;99715.06;;;16.74;100.00
11605;BME280;5858;43.076;25.626;2023-09-18T03:48:53;99772.16;;;17.04;100.00
11605;BME280;5858;43.076;25.626;2023-09-18T03:51:20;99811.19;;;17.21;100.00
11605;BME280;5858;43.076;25.626;2023-09-18T03:53:47;99808.72;;;17.19;100.00
11605;BME280;5858;43.076;25.626;2023-09-18T03:56:14;99779.03;;;16.93;100.00
11605;BME280;5858;43.076;25.626;2023-09-18T03:58:43;99759.34;;;16.79;100.00
11605;BME280;5858;43.076;25.626;2023-09-18T04:01:14;99810.38;;;17.20;100.00
11605;BME280;5858;43.076;25.626;2023-09-18T04:03:42;99810.94;;;17.29;100.00
11605;BME280;5858;43.076;25.626;2023-09-18T04:06:09;99824.38;;;17.04;100.00
11605;BME280;5858;43.076;25.626;2023-09-18T04:08:36;99744.59;;;16.55;100.00
11605;BME280;5858;43.076;25.626;2023-09-18T04:11:03;99818.97;;;16.91;100.00
11605;BME280;5858;43.076;25.626;2023-09-18T04:13:30;99692.72;;;16.07;100.00
11605;BME280;5858;43.076;25.626;2023-09-18T04:16:00;99738.19;;;16.56;100.00
11605;BME280;5858;43.076;25.626;2023-09-18T04:18:29;99827.00;;;17.24;100.00
11605;BME280;5858;43.076;25.626;2023-09-18T04:20:56;99670.47;;;16.38;100.00
11605;BME280;5858;43.076;25.626;2023-09-18T04:23:24;99788.28;;;17.23;100.00
11605;BME280;5858;43.076;25.626;2023-09-18T04:25:52;99824.22;;;17.37;100.00
11605;BME280;5858;43.076;25.626;2023-09-18T04:28:20;99811.97;;;17.35;100.00
11605;BME280;5858;43.076;25.626;2023-09-18T04:30:48;99794.34;;;17.19;100.00
11605;BME280;5858;43.076;25.626;2023-09-18T04:33:16;99822.94;;;17.53;100.00
11605;BME280;5858;43.076;25.626;2023-09-18T04:35:46;99824.75;;;17.59;100.00
11605;BME280;5858;43.076;25.626;2023-09-18T04:38:14;99826.03;;;17.56;100.00
11605;BME280;5858;43.076;25.626;2023-09-18T04:40:41;99837.69;;;17.57;100.00
11605;BME280;5858;43.076;25.626;2023-09-18T04:43:08;99788.84;;;17.39;100.00
11605;BME280;5858;43.076;25.626;2023-09-18T04:45:35;99768.47;;;17.36;100.00
11605;BME280;5858;43.076;25.626;2023-09-18T04:48:02;99837.06;;;17.93;100.00
11605;BME280;5858;43.076;25.626;2023-09-18T04:50:32;99800.69;;;17.82;100.00
11605;BME280;5858;43.076;25.626;2023-09-18T04:53:00;99762.31;;;17.60;100.00
11605;BME280;5858;43.076;25.626;2023-09-18T04:55:27;99834.16;;;17.94;100.00
11605;BME280;5858;43.076;25.626;2023-09-18T04:57:54;99805.47;;;17.87;100.00
11605;BME280;5858;43.076;25.626;2023-09-18T05:00:21;99765.78;;;17.74;100.00
11605;BME280;5858;43.076;25.626;2023-09-18T05:02:55;99740.00;;;17.65;100.00
11605;BME280;5858;43.076;25.626;2023-09-18T05:06:12;99640.28;;;17.06;98.79
11605;BME280;5858;43.076;25.626;2023-09-18T05:08:48;99611.28;;;17.19;96.93
11605;BME280;5858;43.076;25.626;2023-09-18T05:11:30;99840.72;;;18.86;97.11
11605;BME280;5858;43.076;25.626;2023-09-18T05:13:58;99692.34;;;18.14;94.79
11605;BME280;5858;43.076;25.626;2023-09-18T05:16:25;99848.81;;;19.30;94.37
11605;BME280;5858;43.076;25.626;2023-09-18T05:18:53;99854.84;;;19.50;93.15
11605;BME280;5858;43.076;25.626;2023-09-18T05:21:22;99860.25;;;19.68;92.51
11605;BME280;5858;43.076;25.626;2023-09-18T05:23:50;99850.19;;;19.87;90.61
11605;BME280;5858;43.076;25.626;2023-09-18T05:26:19;99847.16;;;19.95;89.94
11605;BME280;5858;43.076;25.626;2023-09-18T05:28:48;99860.53;;;20.08;89.56
11605;BME280;5858;43.076;25.626;2023-09-18T05:31:16;99836.53;;;19.94;88.66
11605;BME280;5858;43.076;25.626;2023-09-18T05:33:43;99809.25;;;20.00;87.67
11605;BME280;5858;43.076;25.626;2023-09-18T05:36:10;99853.09;;;20.57;86.09
11605;BME280;5858;43.076;25.626;2023-09-18T05:38:38;99846.59;;;20.70;84.92
11605;BME280;5858;43.076;25.626;2023-09-18T05:41:05;99861.75;;;21.01;83.73
11605;BME280;5858;43.076;25.626;2023-09-18T05:43:32;99860.66;;;21.14;81.68
11605;BME280;5858;43.076;25.626;2023-09-18T05:46:01;99863.03;;;21.33;80.22
11605;BME280;5858;43.076;25.626;2023-09-18T05:48:28;99854.31;;;21.60;78.49
11605;BME280;5858;43.076;25.626;2023-09-18T05:50:55;99869.69;;;22.06;76.72
11605;BME280;5858;43.076;25.626;2023-09-18T05:53:22;99840.31;;;22.25;74.54
11605;BME280;5858;43.076;25.626;2023-09-18T05:55:50;99808.75;;;22.29;73.14
11605;BME280;5858;43.076;25.626;2023-09-18T05:58:17;99868.91;;;22.73;72.20
11605;BME280;5858;43.076;25.626;2023-09-18T06:00:50;99862.91;;;23.09;72.76
11605;BME280;5858;43.076;25.626;2023-09-18T06:03:16;99841.38;;;23.30;68.22
11605;BME280;5858;43.076;25.626;2023-09-18T06:05:45;99853.25;;;23.62;67.03
11605;BME280;5858;43.076;25.626;2023-09-18T06:08:12;99862.28;;;23.84;65.95
11605;BME280;5858;43.076;25.626;2023-09-18T06:10:39;99876.25;;;23.88;65.08
11605;BME280;5858;43.076;25.626;2023-09-18T06:13:07;99867.63;;;24.01;63.19
11605;BME280;5858;43.076;25.626;2023-09-18T06:15:34;99728.22;;;23.47;64.87
11605;BME280;5858;43.076;25.626;2023-09-18T06:18:02;99870.63;;;24.54;61.56
11605;BME280;5858;43.076;25.626;2023-09-18T06:20:29;99831.38;;;24.38;60.98
11605;BME280;5858;43.076;25.626;2023-09-18T06:22:56;99892.50;;;24.54;61.34
11605;BME280;5858;43.076;25.626;2023-09-18T06:25:23;99862.25;;;24.33;61.01
11605;BME280;5858;43.076;25.626;2023-09-18T06:27:50;99885.03;;;24.44;60.51
11605;BME280;5858;43.076;25.626;2023-09-18T06:30:18;99843.50;;;24.20;60.89
11605;BME280;5858;43.076;25.626;2023-09-18T06:32:45;99878.19;;;24.41;61.10
11605;BME280;5858;43.076;25.626;2023-09-18T06:35:13;99884.13;;;24.33;61.97
11605;BME280;5858;43.076;25.626;2023-09-18T06:37:39;99848.91;;;23.88;61.33
11605;BME280;5858;43.076;25.626;2023-09-18T06:40:08;99878.97;;;23.88;63.62
11605;BME280;5858;43.076;25.626;2023-09-18T06:42:35;99880.53;;;24.06;65.17
11605;BME280;5858;43.076;25.626;2023-09-18T06:45:03;99846.19;;;23.88;65.09
11605;BME280;5858;43.076;25.626;2023-09-18T06:47:33;99891.06;;;24.19;64.72
11605;BME280;5858;43.076;25.626;2023-09-18T06:50:00;99767.38;;;23.09;63.35
11605;BME280;5858;43.076;25.626;2023-09-18T06:52:29;99885.47;;;23.60;63.90
11605;BME280;5858;43.076;25.626;2023-09-18T06:54:56;99769.94;;;22.60;66.19
11605;BME280;5858;43.076;25.626;2023-09-18T06:57:24;99886.00;;;23.18;65.55
11605;BME280;5858;43.076;25.626;2023-09-18T06:59:51;99885.41;;;23.16;68.38
11605;BME280;5858;43.076;25.626;2023-09-18T07:02:18;99876.28;;;22.89;66.63
11605;BME280;5858;43.076;25.626;2023-09-18T07:04:46;99883.03;;;22.70;65.72
11605;BME280;5858;43.076;25.626;2023-09-18T07:07:14;99840.22;;;22.37;65.04
11605;BME280;5858;43.076;25.626;2023-09-18T07:09:41;99873.56;;;22.72;65.64
11605;BME280;5858;43.076;25.626;2023-09-18T07:12:10;99865.84;;;22.69;64.84
11605;BME280;5858;43.076;25.626;2023-09-18T07:14:37;99877.75;;;22.80;63.16
11605;BME280;5858;43.076;25.626;2023-09-18T07:17:05;99813.50;;;22.22;64.19
11605;BME280;5858;43.076;25.626;2023-09-18T07:19:32;99871.81;;;22.49;62.80
11605;BME280;5858;43.076;25.626;2023-09-18T07:22:00;99869.44;;;22.86;62.59
11605;BME280;5858;43.076;25.626;2023-09-18T07:24:27;99831.19;;;22.70;61.20
11605;BME280;5858;43.076;25.626;2023-09-18T07:26:54;99776.75;;;22.41;63.62
11605;BME280;5858;43.076;25.626;2023-09-18T07:29:23;99830.97;;;22.71;57.21
11605;BME280;5858;43.076;25.626;2023-09-18T07:31:51;99843.28;;;22.74;55.58
11605;BME280;5858;43.076;25.626;2023-09-18T07:34:17;99859.91;;;22.89;56.50
11605;BME280;5858;43.076;25.626;2023-09-18T07:36:44;99863.78;;;22.76;57.16
11605;BME280;5858;43.076;25.626;2023-09-18T07:39:13;99862.97;;;22.76;55.74
11605;BME280;5858;43.076;25.626;2023-09-18T07:41:40;99864.88;;;22.75;54.50
11605;BME280;5858;43.076;25.626;2023-09-18T07:44:07;99869.75;;;22.90;53.63
11605;BME280;5858;43.076;25.626;2023-09-18T07:46:34;99846.75;;;22.86;53.11
11605;BME280;5858;43.076;25.626;2023-09-18T07:49:01;99833.06;;;22.81;52.11
11605;BME280;5858;43.076;25.626;2023-09-18T07:51:28;99858.16;;;23.00;51.12
11605;BME280;5858;43.076;25.626;2023-09-18T07:53:55;99704.78;;;21.92;54.30
11605;BME280;5858;43.076;25.626;2023-09-18T07:56:23;99773.13;;;22.36;55.15
11605;BME280;5858;43.076;25.626;2023-09-18T07:58:50;99866.34;;;23.00;54.21
11605;BME280;5858;43.076;25.626;2023-09-18T08:01:17;99878.97;;;23.06;49.64
11605;BME280;5858;43.076;25.626;2023-09-18T08:03:47;99879.31;;;23.09;51.41
11605;BME280;5858;43.076;25.626;2023-09-18T08:06:14;99836.66;;;22.70;51.57
11605;BME280;5858;43.076;25.626;2023-09-18T08:08:44;99877.91;;;23.07;52.01
11605;BME280;5858;43.076;25.626;2023-09-18T08:11:12;99884.31;;;23.34;50.85
11605;BME280;5858;43.076;25.626;2023-09-18T08:13:40;99877.78;;;23.57;50.34
11605;BME280;5858;43.076;25.626;2023-09-18T08:16:07;99858.84;;;23.29;47.62
11605;BME280;5858;43.076;25.626;2023-09-18T08:18:34;99877.28;;;23.60;47.46
11605;BME280;5858;43.076;25.626;2023-09-18T08:21:01;99887.22;;;23.49;47.09
11605;BME280;5858;43.076;25.626;2023-09-18T08:23:29;99865.78;;;23.58;48.33
11605;BME280;5858;43.076;25.626;2023-09-18T08:25:57;99801.09;;;23.20;46.71
11605;BME280;5858;43.076;25.626;2023-09-18T08:28:23;99852.66;;;23.38;47.63
11605;BME280;5858;43.076;25.626;2023-09-18T08:30:52;99763.66;;;22.77;47.85
11605;BME280;5858;43.076;25.626;2023-09-18T08:33:20;99813.53;;;23.11;47.97
11605;BME280;5858;43.076;25.626;2023-09-18T08:35:48;99863.34;;;23.62;46.57
11605;BME280;5858;43.076;25.626;2023-09-18T08:38:15;99861.44;;;23.62;47.73
11605;BME280;5858;43.076;25.626;2023-09-18T08:40:42;99862.94;;;23.70;48.21
11605;BME280;5858;43.076;25.626;2023-09-18T08:43:10;99856.75;;;23.58;47.25
11605;BME280;5858;43.076;25.626;2023-09-18T08:45:45;99856.50;;;23.59;49.79
11605;BME280;5858;43.076;25.626;2023-09-18T08:48:14;99805.59;;;23.53;48.72
11605;BME280;5858;43.076;25.626;2023-09-18T08:50:42;99781.75;;;23.48;49.74
11605;BME280;5858;43.076;25.626;2023-09-18T08:53:10;99847.28;;;24.14;48.16
11605;BME280;5858;43.076;25.626;2023-09-18T08:55:37;99837.78;;;24.22;47.07
11605;BME280;5858;43.076;25.626;2023-09-18T08:58:05;99812.03;;;24.17;47.97
11605;BME280;5858;43.076;25.626;2023-09-18T09:00:32;99824.09;;;24.22;47.74
11605;BME280;5858;43.076;25.626;2023-09-18T09:03:01;99822.66;;;24.14;46.37
11605;BME280;5858;43.076;25.626;2023-09-18T09:05:29;99809.19;;;24.07;46.67
11605;BME280;5858;43.076;25.626;2023-09-18T09:07:56;99843.34;;;24.32;45.05
11605;BME280;5858;43.076;25.626;2023-09-18T09:10:23;99830.19;;;24.29;44.95
11605;BME280;5858;43.076;25.626;2023-09-18T09:12:53;99785.69;;;24.11;45.33
11605;BME280;5858;43.076;25.626;2023-09-18T09:15:21;99829.03;;;24.57;46.16
11605;BME280;5858;43.076;25.626;2023-09-18T09:17:49;99774.75;;;24.11;44.71
11605;BME280;5858;43.076;25.626;2023-09-18T09:20:16;99827.25;;;24.35;45.47
11605;BME280;5858;43.076;25.626;2023-09-18T09:22:45;99825.75;;;24.55;44.78
11605;BME280;5858;43.076;25.626;2023-09-18T09:25:23;99795.50;;;24.71;45.33
11605;BME280;5858;43.076;25.626;2023-09-18T09:27:52;99808.25;;;24.98;44.38
11605;BME280;5858;43.076;25.626;2023-09-18T09:30:20;99801.72;;;25.04;44.01
11605;BME280;5858;43.076;25.626;2023-09-18T09:32:48;99799.31;;;25.07;43.51
11605;BME280;5858;43.076;25.626;2023-09-18T09:35:23;99745.47;;;24.81;43.49
11605;BME280;5858;43.076;25.626;2023-09-18T09:37:56;99803.16;;;25.12;42.56
11605;BME280;5858;43.076;25.626;2023-09-18T09:40:24;99819.66;;;25.27;42.81
11605;BME280;5858;43.076;25.626;2023-09-18T09:42:52;99823.72;;;25.19;42.65
11605;BME280;5858;43.076;25.626;2023-09-18T09:45:26;99705.19;;;24.29;43.55
11605;BME280;5858;43.076;25.626;2023-09-18T09:47:54;99788.44;;;24.80;42.90
11605;BME280;5858;43.076;25.626;2023-09-18T09:50:21;99813.47;;;24.99;43.23
11605;BME280;5858;43.076;25.626;2023-09-18T09:52:49;99765.38;;;24.71;43.47
11605;BME280;5858;43.076;25.626;2023-09-18T09:55:26;99756.47;;;24.96;42.87
11605;BME280;5858;43.076;25.626;2023-09-18T09:57:55;99789.03;;;25.50;42.13
11605;BME280;5858;43.076;25.626;2023-09-18T10:00:31;99787.13;;;25.51;41.41
11605;BME280;5858;43.076;25.626;2023-09-18T10:03:04;99781.09;;;25.54;42.48
11605;BME280;5858;43.076;25.626;2023-09-18T10:05:34;99772.91;;;25.64;41.60
11605;BME280;5858;43.076;25.626;2023-09-18T10:08:05;99768.03;;;25.86;41.22
11605;BME280;5858;43.076;25.626;2023-09-18T10:10:36;99792.75;;;26.01;40.45
11605;BME280;5858;43.076;25.626;2023-09-18T10:13:10;99793.03;;;26.10;39.37
11605;BME280;5858;43.076;25.626;2023-09-18T10:15:39;99788.91;;;26.02;39.66
11605;BME280;5858;43.076;25.626;2023-09-18T10:18:22;99782.84;;;25.85;40.29
11605;BME280;5858;43.076;25.626;2023-09-18T10:20:57;99787.50;;;25.75;38.46
11605;BME280;5858;43.076;25.626;2023-09-18T10:23:38;99802.03;;;25.80;39.91
11605;BME280;5858;43.076;25.626;2023-09-18T10:26:14;99786.69;;;25.99;38.90
11605;BME280;5858;43.076;25.626;2023-09-18T10:28:43;99769.97;;;25.96;43.43
11605;BME280;5858;43.076;25.626;2023-09-18T10:31:12;99774.38;;;26.22;38.55
11605;BME280;5858;43.076;25.626;2023-09-18T10:33:40;99770.53;;;26.39;38.89
11605;BME280;5858;43.076;25.626;2023-09-18T10:36:08;99773.00;;;26.40;37.98
11605;BME280;5858;43.076;25.626;2023-09-18T10:38:37;99768.34;;;26.46;39.26
11605;BME280;5858;43.076;25.626;2023-09-18T10:41:06;99701.97;;;26.13;38.34
11605;BME280;5858;43.076;25.626;2023-09-18T10:43:37;99603.53;;;25.71;37.51
11605;BME280;5858;43.076;25.626;2023-09-18T10:46:06;99770.47;;;26.79;36.56
11605;BME280;5858;43.076;25.626;2023-09-18T10:48:33;99693.16;;;26.52;37.47
11605;BME280;5858;43.076;25.626;2023-09-18T10:51:00;99757.31;;;26.71;34.74
11605;BME280;5858;43.076;25.626;2023-09-18T10:53:31;99680.00;;;26.23;36.49
11605;BME280;5858;43.076;25.626;2023-09-18T10:55:59;99761.13;;;26.80;35.97
11605;BME280;5858;43.076;25.626;2023-09-18T10:58:30;99603.78;;;25.59;34.68
11605;BME280;5858;43.076;25.626;2023-09-18T11:01:02;99737.06;;;26.16;35.29
11605;BME280;5858;43.076;25.626;2023-09-18T11:03:29;99714.28;;;25.70;35.62
11605;BME280;5858;43.076;25.626;2023-09-18T11:06:06;99688.75;;;25.54;35.54
11605;BME280;5858;43.076;25.626;2023-09-18T11:08:35;99732.13;;;26.08;36.32
11605;BME280;5858;43.076;25.626;2023-09-18T11:11:12;99712.94;;;26.08;35.92
11605;BME280;5858;43.076;25.626;2023-09-18T11:13:41;99749.38;;;25.98;36.17
11605;BME280;5858;43.076;25.626;2023-09-18T11:16:41;99690.97;;;25.93;37.39
11605;BME280;5858;43.076;25.626;2023-09-18T11:19:16;99646.03;;;25.73;35.42
11605;BME280;5858;43.076;25.626;2023-09-18T11:21:45;99751.88;;;26.46;34.39
11605;BME280;5858;43.076;25.626;2023-09-18T11:24:16;99753.25;;;26.53;34.63
11605;BME280;5858;43.076;25.626;2023-09-18T11:26:45;99745.81;;;26.64;33.85
11605;BME280;5858;43.076;25.626;2023-09-18T11:29:16;99737.03;;;26.47;34.54
11605;BME280;5858;43.076;25.626;2023-09-18T11:31:50;99740.38;;;26.33;34.46
11605;BME280;5858;43.076;25.626;2023-09-18T11:34:22;99740.91;;;26.35;35.14
11605;BME280;5858;43.076;25.626;2023-09-18T11:36:52;99740.91;;;26.41;33.90
11605;BME280;5858;43.076;25.626;2023-09-18T11:39:35;99736.53;;;26.34;33.57
11605;BME280;5858;43.076;25.626;2023-09-18T11:42:09;99725.53;;;26.24;33.83
11605;BME280;5858;43.076;25.626;2023-09-18T11:44:37;99729.94;;;26.05;34.03
11605;BME280;5858;43.076;25.626;2023-09-18T11:47:13;99714.00;;;25.97;33.96
11605;BME280;5858;43.076;25.626;2023-09-18T11:49:51;99725.25;;;26.21;33.55
11605;BME280;5858;43.076;25.626;2023-09-18T11:52:22;99712.09;;;26.18;34.12
11605;BME280;5858;43.076;25.626;2023-09-18T11:54:50;99698.38;;;26.13;34.46
11605;BME280;5858;43.076;25.626;2023-09-18T11:57:17;99706.06;;;26.21;34.20
11605;BME280;5858;43.076;25.626;2023-09-18T11:59:45;99718.13;;;26.25;34.84
11605;BME280;5858;43.076;25.626;2023-09-18T12:02:14;99644.91;;;25.95;35.61
11605;BME280;5858;43.076;25.626;2023-09-18T12:04:53;99707.69;;;26.37;34.55
11605;BME280;5858;43.076;25.626;2023-09-18T12:07:21;99711.00;;;26.24;34.66
11605;BME280;5858;43.076;25.626;2023-09-18T12:09:50;99706.56;;;26.48;35.78
11605;BME280;5858;43.076;25.626;2023-09-18T12:12:17;99673.66;;;26.38;33.71
11605;BME280;5858;43.076;25.626;2023-09-18T12:14:43;99649.28;;;26.11;33.77
11605;BME280;5858;43.076;25.626;2023-09-18T12:17:15;99695.06;;;26.31;35.35
11605;BME280;5858;43.076;25.626;2023-09-18T12:19:50;99695.63;;;26.23;34.08
11605;BME280;5858;43.076;25.626;2023-09-18T12:22:23;99698.34;;;26.28;33.86
11605;BME280;5858;43.076;25.626;2023-09-18T12:24:50;99694.81;;;26.22;33.37
11605;BME280;5858;43.076;25.626;2023-09-18T12:27:17;99691.22;;;26.37;33.50
11605;BME280;5858;43.076;25.626;2023-09-18T12:29:44;99673.66;;;26.28;33.94
11605;BME280;5858;43.076;25.626;2023-09-18T12:32:11;99689.03;;;26.44;32.97
11605;BME280;5858;43.076;25.626;2023-09-18T12:34:40;99682.41;;;26.55;34.50
11605;BME280;5858;43.076;25.626;2023-09-18T12:37:08;99686.78;;;26.61;34.07
11605;BME280;5858;43.076;25.626;2023-09-18T12:39:36;99680.13;;;26.78;33.88
11605;BME280;5858;43.076;25.626;2023-09-18T12:42:04;99682.91;;;26.67;33.68
11605;BME280;5858;43.076;25.626;2023-09-18T12:44:31;99684.25;;;26.80;34.38
11605;BME280;5858;43.076;25.626;2023-09-18T12:46:58;99660.19;;;26.52;33.61
11605;BME280;5858;43.076;25.626;2023-09-18T12:49:29;99678.03;;;26.54;34.69
11605;BME280;5858;43.076;25.626;2023-09-18T12:51:59;99675.47;;;26.73;35.39
11605;BME280;5858;43.076;25.626;2023-09-18T12:54:39;99670.84;;;26.69;34.70
11605;BME280;5858;43.076;25.626;2023-09-18T12:57:07;99677.72;;;26.66;34.27
11605;BME280;5858;43.076;25.626;2023-09-18T12:59:38;99666.47;;;26.62;34.29
11605;BME280;5858;43.076;25.626;2023-09-18T13:02:05;99667.63;;;26.41;33.30
11605;BME280;5858;43.076;25.626;2023-09-18T13:04:33;99656.06;;;26.54;33.79
11605;BME280;5858;43.076;25.626;2023-09-18T13:07:18;99672.31;;;26.35;33.41